sensor_id;sensor_type;location;lat;lon;timestamp;temperature;humidity
1686;DHT22;840;47.980;7.830;2022-10-31T00:01:47;14.70;99.90
1686;DHT22;840;47.980;7.830;2022-10-31T00:04:13;14.60;99.90
1686;DHT22;840;47.980;7.830;2022-10-31T00:06:40;14.60;99.90
1686;DHT22;840;47.980;7.830;2022-10-31T00:09:09;14.60;99.90
1686;DHT22;840;47.980;7.830;2022-10-31T00:11:37;14.60;99.90
1686;DHT22;840;47.980;7.830;2022-10-31T00:14:05;14.60;99.90
1686;DHT22;840;47.980;7.830;2022-10-31T00:16:32;14.60;99.90
1686;DHT22;840;47.980;7.830;2022-10-31T00:19:00;14.60;99.90
1686;DHT22;840;47.980;7.830;2022-10-31T00:21:28;14.60;99.90
1686;DHT22;840;47.980;7.830;2022-10-31T00:23:56;14.50;99.90
1686;DHT22;840;47.980;7.830;2022-10-31T00:26:23;14.50;99.90
1686;DHT22;840;47.980;7.830;2022-10-31T00:28:51;14.50;99.90
1686;DHT22;840;47.980;7.830;2022-10-31T00:31:18;14.50;99.90
1686;DHT22;840;47.980;7.830;2022-10-31T00:33:45;14.50;99.90
1686;DHT22;840;47.980;7.830;2022-10-31T00:36:14;14.40;99.90
1686;DHT22;840;47.980;7.830;2022-10-31T00:38:41;14.40;99.90
1686;DHT22;840;47.980;7.830;2022-10-31T00:41:09;14.40;99.90
1686;DHT22;840;47.980;7.830;2022-10-31T00:43:36;14.30;99.90
1686;DHT22;840;47.980;7.830;2022-10-31T00:46:04;14.30;99.90
1686;DHT22;840;47.980;7.830;2022-10-31T00:48:31;14.30;99.90
1686;DHT22;840;47.980;7.830;2022-10-31T00:50:58;14.30;99.90
1686;DHT22;840;47.980;7.830;2022-10-31T00:53:25;14.30;99.90
1686;DHT22;840;47.980;7.830;2022-10-31T00:55:51;14.30;99.90
1686;DHT22;840;47.980;7.830;2022-10-31T00:58:19;14.30;99.90
1686;DHT22;840;47.980;7.830;2022-10-31T01:00:47;14.30;99.90
1686;DHT22;840;47.980;7.830;2022-10-31T01:03:22;14.30;99.90
1686;DHT22;840;47.980;7.830;2022-10-31T01:05:56;14.20;99.90
1686;DHT22;840;47.980;7.830;2022-10-31T01:08:24;14.20;99.90
1686;DHT22;840;47.980;7.830;2022-10-31T01:11:06;14.20;99.90
1686;DHT22;840;47.980;7.830;2022-10-31T01:13:34;14.20;99.90
1686;DHT22;840;47.980;7.830;2022-10-31T01:16:01;14.10;99.90
1686;DHT22;840;47.980;7.830;2022-10-31T01:18:30;14.10;99.90
1686;DHT22;840;47.980;7.830;2022-10-31T01:21:00;14.10;99.90
1686;DHT22;840;47.980;7.830;2022-10-31T01:23:28;14.00;99.90
1686;DHT22;840;47.980;7.830;2022-10-31T01:26:07;14.00;99.90
1686;DHT22;840;47.980;7.830;2022-10-31T01:28:35;14.00;99.90
1686;DHT22;840;47.980;7.830;2022-10-31T01:31:05;14.00;99.90
1686;DHT22;840;47.980;7.830;2022-10-31T01:33:34;14.00;99.90
1686;DHT22;840;47.980;7.830;2022-10-31T01:36:11;13.90;99.90
1686;DHT22;840;47.980;7.830;2022-10-31T01:38:38;13.90;99.90
1686;DHT22;840;47.980;7.830;2022-10-31T01:41:05;13.90;99.90
1686;DHT22;840;47.980;7.830;2022-10-31T01:43:46;13.90;99.90
1686;DHT22;840;47.980;7.830;2022-10-31T01:46:14;13.90;99.90
1686;DHT22;840;47.980;7.830;2022-10-31T01:48:44;13.90;99.90
1686;DHT22;840;47.980;7.830;2022-10-31T01:51:12;13.90;99.90
1686;DHT22;840;47.980;7.830;2022-10-31T01:53:41;13.90;99.90
1686;DHT22;840;47.980;7.830;2022-10-31T01:56:08;13.80;99.90
1686;DHT22;840;47.980;7.830;2022-10-31T01:58:36;13.80;99.90
1686;DHT22;840;47.980;7.830;2022-10-31T02:01:03;13.80;99.90
1686;DHT22;840;47.980;7.830;2022-10-31T02:03:30;13.80;99.90
1686;DHT22;840;47.980;7.830;2022-10-31T02:05:59;13.80;99.90
1686;DHT22;840;47.980;7.830;2022-10-31T02:08:27;13.80;99.90
1686;DHT22;840;47.980;7.830;2022-10-31T02:10:56;13.80;99.90
1686;DHT22;840;47.980;7.830;2022-10-31T02:13:25;13.80;99.90
1686;DHT22;840;47.980;7.830;2022-10-31T02:15:54;13.80;99.90
1686;DHT22;840;47.980;7.830;2022-10-31T02:18:22;13.80;99.90
1686;DHT22;840;47.980;7.830;2022-10-31T02:21:00;13.80;99.90
1686;DHT22;840;47.980;7.830;2022-10-31T02:26:43;13.80;99.90
1686;DHT22;840;47.980;7.830;2022-10-31T02:32:29;13.80;99.90
1686;DHT22;840;47.980;7.830;2022-10-31T02:35:06;13.80;99.90
1686;DHT22;840;47.980;7.830;2022-10-31T02:37:42;13.80;99.90
1686;DHT22;840;47.980;7.830;2022-10-31T02:40:17;13.70;99.90
1686;DHT22;840;47.980;7.830;2022-10-31T02:42:51;13.70;99.90
1686;DHT22;840;47.980;7.830;2022-10-31T02:45:25;13.70;99.90
1686;DHT22;840;47.980;7.830;2022-10-31T02:47:59;13.70;99.90
1686;DHT22;840;47.980;7.830;2022-10-31T02:50:31;13.70;99.90
1686;DHT22;840;47.980;7.830;2022-10-31T02:53:00;13.70;99.90
1686;DHT22;840;47.980;7.830;2022-10-31T02:55:51;13.70;99.90
1686;DHT22;840;47.980;7.830;2022-10-31T02:58:23;13.60;99.90
1686;DHT22;840;47.980;7.830;2022-10-31T03:01:08;13.60;99.90
1686;DHT22;840;47.980;7.830;2022-10-31T03:03:44;13.60;99.90
1686;DHT22;840;47.980;7.830;2022-10-31T03:06:19;13.60;99.90
1686;DHT22;840;47.980;7.830;2022-10-31T03:08:54;13.60;99.90
1686;DHT22;840;47.980;7.830;2022-10-31T03:11:25;13.50;99.90
1686;DHT22;840;47.980;7.830;2022-10-31T03:13:59;13.50;99.90
1686;DHT22;840;47.980;7.830;2022-10-31T03:16:33;13.50;99.90
1686;DHT22;840;47.980;7.830;2022-10-31T03:19:08;13.50;99.90
1686;DHT22;840;47.980;7.830;2022-10-31T03:21:38;13.50;99.90
1686;DHT22;840;47.980;7.830;2022-10-31T03:24:09;13.50;99.90
1686;DHT22;840;47.980;7.830;2022-10-31T03:26:39;13.50;99.90
1686;DHT22;840;47.980;7.830;2022-10-31T03:29:10;13.40;99.90
1686;DHT22;840;47.980;7.830;2022-10-31T03:31:42;13.40;99.90
1686;DHT22;840;47.980;7.830;2022-10-31T03:34:12;13.40;99.90
1686;DHT22;840;47.980;7.830;2022-10-31T03:36:41;13.40;99.90
1686;DHT22;840;47.980;7.830;2022-10-31T03:39:13;13.40;99.90
1686;DHT22;840;47.980;7.830;2022-10-31T03:41:42;13.30;99.90
1686;DHT22;840;47.980;7.830;2022-10-31T03:44:12;13.30;99.90
1686;DHT22;840;47.980;7.830;2022-10-31T03:46:41;13.30;99.90
1686;DHT22;840;47.980;7.830;2022-10-31T03:49:09;13.30;99.90
1686;DHT22;840;47.980;7.830;2022-10-31T03:51:41;13.40;99.90
1686;DHT22;840;47.980;7.830;2022-10-31T03:54:16;13.40;99.90
1686;DHT22;840;47.980;7.830;2022-10-31T03:56:50;13.40;99.90
1686;DHT22;840;47.980;7.830;2022-10-31T03:59:23;13.30;99.90
1686;DHT22;840;47.980;7.830;2022-10-31T04:01:55;13.30;99.90
1686;DHT22;840;47.980;7.830;2022-10-31T04:04:24;13.30;99.90
1686;DHT22;840;47.980;7.830;2022-10-31T04:06:54;13.30;99.90
1686;DHT22;840;47.980;7.830;2022-10-31T04:09:24;13.30;99.90
1686;DHT22;840;47.980;7.830;2022-10-31T04:11:54;13.30;99.90
1686;DHT22;840;47.980;7.830;2022-10-31T04:14:26;13.30;99.90
1686;DHT22;840;47.980;7.830;2022-10-31T04:16:54;13.30;99.90
1686;DHT22;840;47.980;7.830;2022-10-31T04:19:21;13.30;99.90
1686;DHT22;840;47.980;7.830;2022-10-31T04:21:47;13.30;99.90
1686;DHT22;840;47.980;7.830;2022-10-31T04:24:16;13.30;99.90
1686;DHT22;840;47.980;7.830;2022-10-31T04:26:42;13.30;99.90
1686;DHT22;840;47.980;7.830;2022-10-31T04:29:09;13.30;99.90
1686;DHT22;840;47.980;7.830;2022-10-31T04:31:36;13.30;99.90
1686;DHT22;840;47.980;7.830;2022-10-31T04:34:03;13.30;99.90
1686;DHT22;840;47.980;7.830;2022-10-31T04:36:30;13.30;99.90
1686;DHT22;840;47.980;7.830;2022-10-31T04:38:57;13.30;99.90
1686;DHT22;840;47.980;7.830;2022-10-31T04:41:25;13.20;99.90
1686;DHT22;840;47.980;7.830;2022-10-31T04:43:52;13.20;99.90
1686;DHT22;840;47.980;7.830;2022-10-31T04:46:19;13.20;99.90
1686;DHT22;840;47.980;7.830;2022-10-31T04:48:46;13.20;99.90
1686;DHT22;840;47.980;7.830;2022-10-31T04:51:13;13.20;99.90
1686;DHT22;840;47.980;7.830;2022-10-31T04:53:40;13.20;99.90
1686;DHT22;840;47.980;7.830;2022-10-31T04:56:07;13.20;99.90
1686;DHT22;840;47.980;7.830;2022-10-31T04:58:36;13.20;99.90
1686;DHT22;840;47.980;7.830;2022-10-31T05:01:02;13.20;99.90
1686;DHT22;840;47.980;7.830;2022-10-31T05:03:29;13.10;99.90
1686;DHT22;840;47.980;7.830;2022-10-31T05:05:56;13.10;99.90
1686;DHT22;840;47.980;7.830;2022-10-31T05:08:23;13.20;99.90
1686;DHT22;840;47.980;7.830;2022-10-31T05:10:51;13.10;99.90
1686;DHT22;840;47.980;7.830;2022-10-31T05:13:18;13.10;99.90
1686;DHT22;840;47.980;7.830;2022-10-31T05:15:46;13.10;99.90
1686;DHT22;840;47.980;7.830;2022-10-31T05:18:13;13.10;99.90
1686;DHT22;840;47.980;7.830;2022-10-31T05:20:40;13.10;99.90
1686;DHT22;840;47.980;7.830;2022-10-31T05:23:07;13.00;99.90
1686;DHT22;840;47.980;7.830;2022-10-31T05:25:34;13.00;99.90
1686;DHT22;840;47.980;7.830;2022-10-31T05:28:02;13.00;99.90
1686;DHT22;840;47.980;7.830;2022-10-31T05:30:30;13.00;99.90
1686;DHT22;840;47.980;7.830;2022-10-31T05:32:59;13.00;99.90
1686;DHT22;840;47.980;7.830;2022-10-31T05:35:28;13.00;99.90
1686;DHT22;840;47.980;7.830;2022-10-31T05:37:56;13.00;99.90
1686;DHT22;840;47.980;7.830;2022-10-31T05:40:24;12.90;99.90
1686;DHT22;840;47.980;7.830;2022-10-31T05:42:56;12.90;99.90
1686;DHT22;840;47.980;7.830;2022-10-31T05:45:24;12.90;99.90
1686;DHT22;840;47.980;7.830;2022-10-31T05:47:52;12.90;99.90
1686;DHT22;840;47.980;7.830;2022-10-31T05:50:21;12.90;99.90
1686;DHT22;840;47.980;7.830;2022-10-31T05:52:55;12.90;99.90
1686;DHT22;840;47.980;7.830;2022-10-31T05:55:22;12.90;99.90
1686;DHT22;840;47.980;7.830;2022-10-31T05:57:51;12.90;99.90
1686;DHT22;840;47.980;7.830;2022-10-31T06:00:18;12.80;99.90
1686;DHT22;840;47.980;7.830;2022-10-31T06:02:45;12.90;99.90
1686;DHT22;840;47.980;7.830;2022-10-31T06:05:13;12.90;99.90
1686;DHT22;840;47.980;7.830;2022-10-31T06:07:41;12.90;99.90
1686;DHT22;840;47.980;7.830;2022-10-31T06:10:08;12.90;99.90
1686;DHT22;840;47.980;7.830;2022-10-31T06:12:36;13.00;99.90
1686;DHT22;840;47.980;7.830;2022-10-31T06:15:07;13.00;99.90
1686;DHT22;840;47.980;7.830;2022-10-31T06:17:35;13.00;99.90
1686;DHT22;840;47.980;7.830;2022-10-31T06:20:03;13.00;99.90
1686;DHT22;840;47.980;7.830;2022-10-31T06:22:30;13.00;99.90
1686;DHT22;840;47.980;7.830;2022-10-31T06:24:58;13.00;99.90
1686;DHT22;840;47.980;7.830;2022-10-31T06:27:25;13.10;99.90
1686;DHT22;840;47.980;7.830;2022-10-31T06:29:53;13.00;99.90
1686;DHT22;840;47.980;7.830;2022-10-31T06:32:20;13.00;99.90
1686;DHT22;840;47.980;7.830;2022-10-31T06:34:47;13.10;99.90
1686;DHT22;840;47.980;7.830;2022-10-31T06:37:15;13.00;99.90
1686;DHT22;840;47.980;7.830;2022-10-31T06:39:42;13.00;99.90
1686;DHT22;840;47.980;7.830;2022-10-31T06:42:11;13.00;99.90
1686;DHT22;840;47.980;7.830;2022-10-31T06:44:38;13.10;99.90
1686;DHT22;840;47.980;7.830;2022-10-31T06:47:05;13.10;99.90
1686;DHT22;840;47.980;7.830;2022-10-31T06:49:33;13.10;99.90
1686;DHT22;840;47.980;7.830;2022-10-31T06:52:00;13.10;99.90
1686;DHT22;840;47.980;7.830;2022-10-31T06:54:27;13.20;99.90
1686;DHT22;840;47.980;7.830;2022-10-31T06:56:54;13.20;99.90
1686;DHT22;840;47.980;7.830;2022-10-31T06:59:22;13.20;99.90
1686;DHT22;840;47.980;7.830;2022-10-31T07:01:50;13.30;99.90
1686;DHT22;840;47.980;7.830;2022-10-31T07:04:17;13.30;99.90
1686;DHT22;840;47.980;7.830;2022-10-31T07:06:44;13.30;99.90
1686;DHT22;840;47.980;7.830;2022-10-31T07:09:11;13.40;99.90
1686;DHT22;840;47.980;7.830;2022-10-31T07:11:38;13.40;99.90
1686;DHT22;840;47.980;7.830;2022-10-31T07:14:05;13.40;99.90
1686;DHT22;840;47.980;7.830;2022-10-31T07:16:34;13.50;99.90
1686;DHT22;840;47.980;7.830;2022-10-31T07:19:01;13.50;99.90
1686;DHT22;840;47.980;7.830;2022-10-31T07:21:28;13.60;99.90
1686;DHT22;840;47.980;7.830;2022-10-31T07:23:55;13.60;99.90
1686;DHT22;840;47.980;7.830;2022-10-31T07:26:22;13.70;99.90
1686;DHT22;840;47.980;7.830;2022-10-31T07:28:49;13.70;99.90
1686;DHT22;840;47.980;7.830;2022-10-31T07:31:15;13.80;99.90
1686;DHT22;840;47.980;7.830;2022-10-31T07:33:44;13.80;99.90
1686;DHT22;840;47.980;7.830;2022-10-31T07:36:11;13.80;99.90
1686;DHT22;840;47.980;7.830;2022-10-31T07:38:38;13.90;99.90
1686;DHT22;840;47.980;7.830;2022-10-31T07:41:05;13.90;99.90
1686;DHT22;840;47.980;7.830;2022-10-31T07:43:32;14.00;99.90
1686;DHT22;840;47.980;7.830;2022-10-31T07:45:59;14.00;99.90
1686;DHT22;840;47.980;7.830;2022-10-31T07:48:26;14.10;99.90
1686;DHT22;840;47.980;7.830;2022-10-31T07:50:57;14.20;99.90
1686;DHT22;840;47.980;7.830;2022-10-31T07:53:24;14.20;99.90
1686;DHT22;840;47.980;7.830;2022-10-31T07:55:51;14.30;99.90
1686;DHT22;840;47.980;7.830;2022-10-31T07:58:18;14.40;99.90
1686;DHT22;840;47.980;7.830;2022-10-31T08:00:46;14.40;99.90
1686;DHT22;840;47.980;7.830;2022-10-31T08:03:15;14.50;99.90
1686;DHT22;840;47.980;7.830;2022-10-31T08:05:42;14.60;99.90
1686;DHT22;840;47.980;7.830;2022-10-31T08:08:13;14.70;99.90
1686;DHT22;840;47.980;7.830;2022-10-31T08:10:40;14.70;99.90
1686;DHT22;840;47.980;7.830;2022-10-31T08:13:08;14.80;99.90
1686;DHT22;840;47.980;7.830;2022-10-31T08:15:36;14.80;99.90
1686;DHT22;840;47.980;7.830;2022-10-31T08:18:05;14.90;99.90
1686;DHT22;840;47.980;7.830;2022-10-31T08:20:32;15.00;99.90
1686;DHT22;840;47.980;7.830;2022-10-31T08:23:00;15.10;99.90
1686;DHT22;840;47.980;7.830;2022-10-31T08:25:30;15.20;99.90
1686;DHT22;840;47.980;7.830;2022-10-31T08:27:58;15.30;99.90
1686;DHT22;840;47.980;7.830;2022-10-31T08:30:27;15.30;99.90
1686;DHT22;840;47.980;7.830;2022-10-31T08:32:59;15.40;99.90
1686;DHT22;840;47.980;7.830;2022-10-31T08:35:27;15.40;99.90
1686;DHT22;840;47.980;7.830;2022-10-31T08:37:54;15.50;99.90
1686;DHT22;840;47.980;7.830;2022-10-31T08:40:22;15.60;99.90
1686;DHT22;840;47.980;7.830;2022-10-31T08:42:57;15.70;99.90
1686;DHT22;840;47.980;7.830;2022-10-31T08:45:25;15.70;99.90
1686;DHT22;840;47.980;7.830;2022-10-31T08:47:56;15.80;99.90
1686;DHT22;840;47.980;7.830;2022-10-31T08:50:23;15.90;99.90
1686;DHT22;840;47.980;7.830;2022-10-31T08:52:50;15.90;99.90
1686;DHT22;840;47.980;7.830;2022-10-31T08:55:17;15.90;99.90
1686;DHT22;840;47.980;7.830;2022-10-31T08:57:44;16.00;99.90
1686;DHT22;840;47.980;7.830;2022-10-31T09:00:13;16.10;99.90
1686;DHT22;840;47.980;7.830;2022-10-31T09:02:39;16.10;99.90
1686;DHT22;840;47.980;7.830;2022-10-31T09:05:07;16.20;99.90
1686;DHT22;840;47.980;7.830;2022-10-31T09:07:34;16.30;99.90
1686;DHT22;840;47.980;7.830;2022-10-31T09:10:02;16.30;99.90
1686;DHT22;840;47.980;7.830;2022-10-31T09:12:29;16.30;99.90
1686;DHT22;840;47.980;7.830;2022-10-31T09:14:55;16.40;99.90
1686;DHT22;840;47.980;7.830;2022-10-31T09:17:24;16.50;99.90
1686;DHT22;840;47.980;7.830;2022-10-31T09:19:52;16.50;99.90
1686;DHT22;840;47.980;7.830;2022-10-31T09:22:18;16.60;99.90
1686;DHT22;840;47.980;7.830;2022-10-31T09:24:45;16.60;99.90
1686;DHT22;840;47.980;7.830;2022-10-31T09:27:12;16.70;99.90
1686;DHT22;840;47.980;7.830;2022-10-31T09:29:39;16.70;99.90
1686;DHT22;840;47.980;7.830;2022-10-31T09:32:06;16.80;99.90
1686;DHT22;840;47.980;7.830;2022-10-31T09:34:34;16.90;99.90
1686;DHT22;840;47.980;7.830;2022-10-31T09:37:01;17.00;99.90
1686;DHT22;840;47.980;7.830;2022-10-31T09:39:28;17.00;99.90
1686;DHT22;840;47.980;7.830;2022-10-31T09:42:09;17.10;99.90
1686;DHT22;840;47.980;7.830;2022-10-31T09:44:48;17.10;99.90
1686;DHT22;840;47.980;7.830;2022-10-31T09:47:23;17.10;99.90
1686;DHT22;840;47.980;7.830;2022-10-31T09:50:02;17.20;99.90
1686;DHT22;840;47.980;7.830;2022-10-31T09:52:34;17.20;99.90
1686;DHT22;840;47.980;7.830;2022-10-31T09:55:05;17.20;99.90
1686;DHT22;840;47.980;7.830;2022-10-31T09:57:35;17.20;99.90
1686;DHT22;840;47.980;7.830;2022-10-31T10:00:04;17.10;99.90
1686;DHT22;840;47.980;7.830;2022-10-31T10:02:37;17.20;99.90
1686;DHT22;840;47.980;7.830;2022-10-31T10:05:11;17.20;99.90
1686;DHT22;840;47.980;7.830;2022-10-31T10:07:44;17.20;99.90
1686;DHT22;840;47.980;7.830;2022-10-31T10:10:16;17.30;99.90
1686;DHT22;840;47.980;7.830;2022-10-31T10:13:00;17.30;99.90
1686;DHT22;840;47.980;7.830;2022-10-31T10:15:47;17.40;99.90
1686;DHT22;840;47.980;7.830;2022-10-31T10:18:23;17.40;99.90
1686;DHT22;840;47.980;7.830;2022-10-31T10:21:06;17.40;99.90
1686;DHT22;840;47.980;7.830;2022-10-31T10:23:50;17.40;99.90
1686;DHT22;840;47.980;7.830;2022-10-31T10:26:19;17.50;99.90
1686;DHT22;840;47.980;7.830;2022-10-31T10:28:51;17.50;99.90
1686;DHT22;840;47.980;7.830;2022-10-31T10:31:24;17.50;99.90
1686;DHT22;840;47.980;7.830;2022-10-31T10:33:59;17.50;99.90
1686;DHT22;840;47.980;7.830;2022-10-31T10:36:33;17.50;99.90
1686;DHT22;840;47.980;7.830;2022-10-31T10:39:04;17.60;99.90
1686;DHT22;840;47.980;7.830;2022-10-31T10:41:32;17.60;99.90
1686;DHT22;840;47.980;7.830;2022-10-31T10:43:59;17.60;99.90
1686;DHT22;840;47.980;7.830;2022-10-31T10:46:32;17.60;99.90
1686;DHT22;840;47.980;7.830;2022-10-31T10:49:20;17.60;99.90
1686;DHT22;840;47.980;7.830;2022-10-31T10:51:54;17.60;99.90
1686;DHT22;840;47.980;7.830;2022-10-31T10:54:41;17.50;99.90
1686;DHT22;840;47.980;7.830;2022-10-31T10:57:21;17.40;99.90
1686;DHT22;840;47.980;7.830;2022-10-31T10:59:49;17.40;99.90
1686;DHT22;840;47.980;7.830;2022-10-31T11:02:19;17.40;99.90
1686;DHT22;840;47.980;7.830;2022-10-31T11:04:49;17.40;99.90
1686;DHT22;840;47.980;7.830;2022-10-31T11:07:19;17.30;99.90
1686;DHT22;840;47.980;7.830;2022-10-31T11:09:46;17.30;99.90
1686;DHT22;840;47.980;7.830;2022-10-31T11:12:19;17.30;99.90
1686;DHT22;840;47.980;7.830;2022-10-31T11:14:49;17.30;99.90
1686;DHT22;840;47.980;7.830;2022-10-31T11:17:25;17.30;99.90
1686;DHT22;840;47.980;7.830;2022-10-31T11:20:05;17.40;99.90
1686;DHT22;840;47.980;7.830;2022-10-31T11:22:34;17.50;99.90
1686;DHT22;840;47.980;7.830;2022-10-31T11:25:20;17.60;99.90
1686;DHT22;840;47.980;7.830;2022-10-31T11:27:47;17.70;99.90
1686;DHT22;840;47.980;7.830;2022-10-31T11:30:24;17.80;99.90
1686;DHT22;840;47.980;7.830;2022-10-31T11:32:51;17.90;99.90
1686;DHT22;840;47.980;7.830;2022-10-31T11:35:20;18.00;99.90
1686;DHT22;840;47.980;7.830;2022-10-31T11:37:52;18.10;99.90
1686;DHT22;840;47.980;7.830;2022-10-31T11:40:22;18.20;99.90
1686;DHT22;840;47.980;7.830;2022-10-31T11:42:50;18.30;99.90
1686;DHT22;840;47.980;7.830;2022-10-31T11:45:28;18.40;99.90
1686;DHT22;840;47.980;7.830;2022-10-31T11:47:56;18.40;99.90
1686;DHT22;840;47.980;7.830;2022-10-31T11:50:31;18.40;99.90
1686;DHT22;840;47.980;7.830;2022-10-31T11:53:00;18.40;99.90
1686;DHT22;840;47.980;7.830;2022-10-31T11:55:32;18.30;99.90
1686;DHT22;840;47.980;7.830;2022-10-31T11:57:59;18.30;99.90
1686;DHT22;840;47.980;7.830;2022-10-31T12:00:28;18.40;99.90
1686;DHT22;840;47.980;7.830;2022-10-31T12:03:11;18.40;99.90
1686;DHT22;840;47.980;7.830;2022-10-31T12:05:39;18.50;99.90
1686;DHT22;840;47.980;7.830;2022-10-31T12:08:09;18.50;99.90
1686;DHT22;840;47.980;7.830;2022-10-31T12:10:44;18.50;99.90
1686;DHT22;840;47.980;7.830;2022-10-31T12:13:28;18.50;99.90
1686;DHT22;840;47.980;7.830;2022-10-31T12:16:02;18.50;99.90
1686;DHT22;840;47.980;7.830;2022-10-31T12:18:50;18.50;99.90
1686;DHT22;840;47.980;7.830;2022-10-31T12:21:35;18.50;99.90
1686;DHT22;840;47.980;7.830;2022-10-31T12:24:13;18.60;99.90
1686;DHT22;840;47.980;7.830;2022-10-31T12:26:52;18.70;99.90
1686;DHT22;840;47.980;7.830;2022-10-31T12:29:34;18.70;99.90
1686;DHT22;840;47.980;7.830;2022-10-31T12:32:17;18.80;99.90
1686;DHT22;840;47.980;7.830;2022-10-31T12:35:05;18.80;99.90
1686;DHT22;840;47.980;7.830;2022-10-31T12:37:46;18.80;99.90
1686;DHT22;840;47.980;7.830;2022-10-31T12:40:28;18.80;99.90
1686;DHT22;840;47.980;7.830;2022-10-31T12:43:09;18.80;99.90
1686;DHT22;840;47.980;7.830;2022-10-31T12:45:50;18.80;99.90
1686;DHT22;840;47.980;7.830;2022-10-31T12:48:40;18.90;99.90
1686;DHT22;840;47.980;7.830;2022-10-31T12:51:21;18.90;99.90
1686;DHT22;840;47.980;7.830;2022-10-31T12:54:02;19.00;99.90
1686;DHT22;840;47.980;7.830;2022-10-31T12:56:41;19.10;99.90
1686;DHT22;840;47.980;7.830;2022-10-31T12:59:15;19.10;99.90
1686;DHT22;840;47.980;7.830;2022-10-31T13:01:46;19.20;99.90
1686;DHT22;840;47.980;7.830;2022-10-31T13:04:35;19.30;99.90
1686;DHT22;840;47.980;7.830;2022-10-31T13:07:05;19.30;99.90
1686;DHT22;840;47.980;7.830;2022-10-31T13:09:38;19.30;99.90
1686;DHT22;840;47.980;7.830;2022-10-31T13:12:10;19.30;99.90
1686;DHT22;840;47.980;7.830;2022-10-31T13:14:39;19.30;99.90
1686;DHT22;840;47.980;7.830;2022-10-31T13:17:10;19.30;99.90
1686;DHT22;840;47.980;7.830;2022-10-31T13:19:42;19.30;99.90
1686;DHT22;840;47.980;7.830;2022-10-31T13:22:15;19.30;99.90
1686;DHT22;840;47.980;7.830;2022-10-31T13:24:46;19.30;99.90
1686;DHT22;840;47.980;7.830;2022-10-31T13:27:21;19.30;99.90
1686;DHT22;840;47.980;7.830;2022-10-31T13:29:56;19.30;99.90
1686;DHT22;840;47.980;7.830;2022-10-31T13:32:26;19.30;99.90
1686;DHT22;840;47.980;7.830;2022-10-31T13:34:56;19.40;99.90
1686;DHT22;840;47.980;7.830;2022-10-31T13:37:32;19.40;99.90
1686;DHT22;840;47.980;7.830;2022-10-31T13:40:12;19.50;99.90
1686;DHT22;840;47.980;7.830;2022-10-31T13:42:51;19.70;99.90
1686;DHT22;840;47.980;7.830;2022-10-31T13:45:21;19.70;99.90
1686;DHT22;840;47.980;7.830;2022-10-31T13:47:59;19.80;99.90
1686;DHT22;840;47.980;7.830;2022-10-31T13:50:27;19.90;99.90
1686;DHT22;840;47.980;7.830;2022-10-31T13:53:11;19.90;99.90
1686;DHT22;840;47.980;7.830;2022-10-31T13:55:41;19.90;99.90
1686;DHT22;840;47.980;7.830;2022-10-31T13:58:24;19.90;99.90
1686;DHT22;840;47.980;7.830;2022-10-31T14:01:11;19.90;99.90
1686;DHT22;840;47.980;7.830;2022-10-31T14:03:40;20.00;99.90
1686;DHT22;840;47.980;7.830;2022-10-31T14:06:09;19.90;99.90
1686;DHT22;840;47.980;7.830;2022-10-31T14:08:39;19.90;99.90
1686;DHT22;840;47.980;7.830;2022-10-31T14:11:08;19.90;99.90
1686;DHT22;840;47.980;7.830;2022-10-31T14:13:44;19.90;99.90
1686;DHT22;840;47.980;7.830;2022-10-31T14:16:18;20.00;99.90
1686;DHT22;840;47.980;7.830;2022-10-31T14:18:51;20.00;99.90
1686;DHT22;840;47.980;7.830;2022-10-31T14:21:28;20.00;99.90
1686;DHT22;840;47.980;7.830;2022-10-31T14:23:56;20.00;99.90
1686;DHT22;840;47.980;7.830;2022-10-31T14:26:34;20.00;99.90
1686;DHT22;840;47.980;7.830;2022-10-31T14:29:25;20.10;99.90
1686;DHT22;840;47.980;7.830;2022-10-31T14:31:54;20.20;99.90
1686;DHT22;840;47.980;7.830;2022-10-31T14:34:26;20.30;99.90
1686;DHT22;840;47.980;7.830;2022-10-31T14:37:08;20.40;99.90
1686;DHT22;840;47.980;7.830;2022-10-31T14:39:44;20.50;99.90
1686;DHT22;840;47.980;7.830;2022-10-31T14:42:31;20.40;99.90
1686;DHT22;840;47.980;7.830;2022-10-31T14:45:25;20.30;99.90
1686;DHT22;840;47.980;7.830;2022-10-31T14:48:06;20.10;99.90
1686;DHT22;840;47.980;7.830;2022-10-31T14:50:44;20.20;99.90
1686;DHT22;840;47.980;7.830;2022-10-31T14:53:18;20.10;99.90
1686;DHT22;840;47.980;7.830;2022-10-31T14:55:49;20.10;99.90
1686;DHT22;840;47.980;7.830;2022-10-31T14:58:21;20.00;99.90
1686;DHT22;840;47.980;7.830;2022-10-31T15:00:54;20.00;99.90
1686;DHT22;840;47.980;7.830;2022-10-31T15:03:26;19.80;99.90
1686;DHT22;840;47.980;7.830;2022-10-31T15:05:56;19.70;99.90
1686;DHT22;840;47.980;7.830;2022-10-31T15:08:34;19.70;99.90
1686;DHT22;840;47.980;7.830;2022-10-31T15:11:10;19.60;99.90
1686;DHT22;840;47.980;7.830;2022-10-31T15:13:45;19.60;99.90
1686;DHT22;840;47.980;7.830;2022-10-31T15:16:16;19.60;99.90
1686;DHT22;840;47.980;7.830;2022-10-31T15:18:50;19.60;99.90
1686;DHT22;840;47.980;7.830;2022-10-31T15:21:20;19.50;99.90
1686;DHT22;840;47.980;7.830;2022-10-31T15:23:47;19.40;99.90
1686;DHT22;840;47.980;7.830;2022-10-31T15:26:20;19.40;99.90
1686;DHT22;840;47.980;7.830;2022-10-31T15:28:57;19.40;99.90
1686;DHT22;840;47.980;7.830;2022-10-31T15:31:27;19.40;99.90
1686;DHT22;840;47.980;7.830;2022-10-31T15:33:55;19.30;99.90
1686;DHT22;840;47.980;7.830;2022-10-31T15:36:25;19.30;99.90
1686;DHT22;840;47.980;7.830;2022-10-31T15:38:54;19.10;99.90
1686;DHT22;840;47.980;7.830;2022-10-31T15:41:28;19.00;99.90
1686;DHT22;840;47.980;7.830;2022-10-31T15:44:02;19.00;99.90
1686;DHT22;840;47.980;7.830;2022-10-31T15:46:32;19.00;99.90
1686;DHT22;840;47.980;7.830;2022-10-31T15:49:00;18.90;99.90
1686;DHT22;840;47.980;7.830;2022-10-31T15:51:28;18.90;99.90
1686;DHT22;840;47.980;7.830;2022-10-31T15:53:58;18.90;99.90
1686;DHT22;840;47.980;7.830;2022-10-31T15:56:28;18.80;99.90
1686;DHT22;840;47.980;7.830;2022-10-31T15:58:58;18.80;99.90
1686;DHT22;840;47.980;7.830;2022-10-31T16:01:26;18.70;99.90
1686;DHT22;840;47.980;7.830;2022-10-31T16:04:03;18.70;99.90
1686;DHT22;840;47.980;7.830;2022-10-31T16:06:32;18.60;99.90
1686;DHT22;840;47.980;7.830;2022-10-31T16:08:59;18.60;99.90
1686;DHT22;840;47.980;7.830;2022-10-31T16:11:33;18.40;99.90
1686;DHT22;840;47.980;7.830;2022-10-31T16:14:02;18.30;99.90
1686;DHT22;840;47.980;7.830;2022-10-31T16:16:32;18.20;99.90
1686;DHT22;840;47.980;7.830;2022-10-31T16:19:02;18.20;99.90
1686;DHT22;840;47.980;7.830;2022-10-31T16:21:31;18.10;99.90
1686;DHT22;840;47.980;7.830;2022-10-31T16:24:02;18.00;99.90
1686;DHT22;840;47.980;7.830;2022-10-31T16:26:30;17.90;99.90
1686;DHT22;840;47.980;7.830;2022-10-31T16:28:58;17.90;99.90
1686;DHT22;840;47.980;7.830;2022-10-31T16:31:28;17.80;99.90
1686;DHT22;840;47.980;7.830;2022-10-31T16:34:15;17.80;99.90
1686;DHT22;840;47.980;7.830;2022-10-31T16:36:43;17.70;99.90
1686;DHT22;840;47.980;7.830;2022-10-31T16:39:10;17.60;99.90
1686;DHT22;840;47.980;7.830;2022-10-31T16:41:40;17.50;99.90
1686;DHT22;840;47.980;7.830;2022-10-31T16:44:15;17.50;99.90
1686;DHT22;840;47.980;7.830;2022-10-31T16:46:43;17.40;99.90
1686;DHT22;840;47.980;7.830;2022-10-31T16:49:14;17.30;99.90